Time;durP1;ratioP1;P1;durP2;ratioP2;P2;SDS_P1;SDS_P2;PMS_P1;PMS_P2;Temp;Humidity;BMP_temperature;BMP_pressure;BME280_temperature;BME280_humidity;BME280_pressure;Samples;Min_cycle;Max_cycle;Signal;HPM_P1;HPM_P2
2021/08/08 00:00:34;;;;;;;2.10;1.10;;;16.90;99.90;;;;;;4979581;28;20267;-78
2021/08/08 00:02:59;;;;;;;3.00;1.07;;;17.00;99.90;;;;;;4979437;28;20659;-78
2021/08/08 00:05:25;;;;;;;2.73;1.00;;;17.10;99.90;;;;;;4979737;28;20185;-78
2021/08/08 00:07:50;;;;;;;1.53;0.90;;;17.00;99.90;;;;;;4978847;28;20173;-78
2021/08/08 00:10:16;;;;;;;2.23;1.30;;;17.10;99.90;;;;;;4979102;28;20235;-78
2021/08/08 00:12:42;;;;;;;2.43;1.03;;;17.10;99.90;;;;;;4979753;28;20183;-78
2021/08/08 00:15:08;;;;;;;2.93;1.40;;;17.00;99.90;;;;;;4980039;28;20177;-78
2021/08/08 00:17:34;;;;;;;3.03;1.00;;;17.00;99.90;;;;;;4979681;28;20645;-78
2021/08/08 00:20:00;;;;;;;1.77;1.30;;;16.90;99.90;;;;;;4963780;28;20184;-78
2021/08/08 00:22:25;;;;;;;1.70;1.10;;;16.90;99.90;;;;;;4978770;28;20176;-78
2021/08/08 00:24:51;;;;;;;2.83;1.10;;;17.00;99.90;;;;;;4979201;28;20277;-78
2021/08/08 00:27:16;;;;;;;4.67;1.20;;;17.00;99.90;;;;;;4979617;28;20185;-78
2021/08/08 00:29:42;;;;;;;1.60;1.10;;;17.10;99.90;;;;;;4979397;28;20180;-78
2021/08/08 00:32:08;;;;;;;3.30;0.90;;;17.10;99.90;;;;;;4978780;28;20604;-78
2021/08/08 00:34:33;;;;;;;2.50;0.80;;;17.20;99.90;;;;;;4979400;28;20554;-78
2021/08/08 00:36:59;;;;;;;2.67;1.10;;;17.20;99.90;;;;;;4979543;28;20668;-78
2021/08/08 00:39:25;;;;;;;2.13;0.90;;;17.30;99.90;;;;;;4979125;28;20575;-78
2021/08/08 00:41:51;;;;;;;3.40;1.20;;;17.30;99.90;;;;;;4979130;28;20188;-78
2021/08/08 00:44:17;;;;;;;2.13;0.80;;;17.30;99.90;;;;;;4979577;28;20201;-78
2021/08/08 00:46:42;;;;;;;2.47;1.03;;;17.30;99.90;;;;;;4979478;28;20268;-78
2021/08/08 00:49:08;;;;;;;1.93;0.90;;;17.40;99.90;;;;;;4979490;28;20173;-78
2021/08/08 00:51:34;;;;;;;2.00;0.87;;;17.40;99.90;;;;;;4979426;28;20589;-79
2021/08/08 00:54:00;;;;;;;3.00;0.87;;;17.50;99.90;;;;;;4979893;28;20184;-78
2021/08/08 00:56:25;;;;;;;2.60;1.13;;;17.40;99.90;;;;;;4979750;28;20200;-78
2021/08/08 00:58:51;;;;;;;3.23;1.33;;;17.50;99.90;;;;;;4980033;28;20200;-78
2021/08/08 01:01:18;;;;;;;2.13;1.13;;;17.50;99.90;;;;;;4979763;28;20201;-78
2021/08/08 01:03:43;;;;;;;1.53;0.97;;;17.40;99.90;;;;;;4979972;28;20236;-78
2021/08/08 01:06:17;;;;;;;2.50;1.20;;;17.40;99.90;;;;;;4980655;28;20181;-78
2021/08/08 01:08:45;;;;;;;4.33;1.10;;;17.40;99.90;;;;;;4983966;28;20275;-78
2021/08/08 01:11:11;;;;;;;2.93;1.37;;;17.30;99.90;;;;;;4982740;28;20220;-78
2021/08/08 01:13:37;;;;;;;3.73;1.47;;;17.10;99.90;;;;;;4984459;28;20280;-78
2021/08/08 01:16:02;;;;;;;2.03;1.20;;;17.10;99.90;;;;;;4984508;28;20342;-78
2021/08/08 01:18:28;;;;;;;4.53;1.40;;;16.90;99.90;;;;;;4984632;28;20189;-78
2021/08/08 01:20:53;;;;;;;2.73;1.30;;;16.90;99.90;;;;;;4984511;28;20231;-78
2021/08/08 01:23:20;;;;;;;3.63;1.53;;;16.80;99.90;;;;;;4983902;28;20205;-78
2021/08/08 01:25:46;;;;;;;2.80;1.30;;;16.70;99.90;;;;;;4983969;28;20201;-78
2021/08/08 01:28:11;;;;;;;3.00;1.30;;;16.60;99.90;;;;;;4983706;28;20243;-78
2021/08/08 01:30:37;;;;;;;2.87;1.60;;;16.60;99.90;;;;;;4983554;28;20208;-78
2021/08/08 01:33:04;;;;;;;4.83;1.80;;;16.60;99.90;;;;;;4983766;28;20200;-78
2021/08/08 01:35:29;;;;;;;2.80;1.60;;;16.60;99.90;;;;;;4984820;28;20196;-78
2021/08/08 01:37:55;;;;;;;3.20;1.53;;;16.60;99.90;;;;;;4990326;28;20185;-79
2021/08/08 01:40:24;;;;;;;2.50;1.43;;;16.60;99.90;;;;;;4990612;28;20225;-78
2021/08/08 01:42:50;;;;;;;2.07;1.10;;;16.60;99.90;;;;;;4991592;28;20682;-78
2021/08/08 01:45:15;;;;;;;2.90;1.40;;;16.60;99.90;;;;;;4993468;28;20223;-78
2021/08/08 01:48:01;;;;;;;3.33;1.10;;;16.50;99.90;;;;;;4992868;28;20181;-78
2021/08/08 01:50:31;;;;;;;3.00;1.30;;;16.50;99.90;;;;;;4985414;28;20210;-79
2021/08/08 01:53:00;;;;;;;2.40;1.40;;;16.50;99.90;;;;;;4991823;28;20231;-78
2021/08/08 01:55:26;;;;;;;2.10;1.40;;;16.50;99.90;;;;;;4990887;28;20185;-78
2021/08/08 01:57:52;;;;;;;2.17;1.33;;;16.50;99.90;;;;;;4986502;28;20208;-78
2021/08/08 02:00:19;;;;;;;4.47;1.50;;;16.50;99.90;;;;;;4990861;28;20205;-78
2021/08/08 02:02:55;;;;;;;2.63;1.23;;;16.50;99.90;;;;;;4991799;28;20176;-78
2021/08/08 02:05:21;;;;;;;3.30;1.40;;;16.50;99.90;;;;;;4979334;28;20179;-78
2021/08/08 02:07:47;;;;;;;2.87;1.20;;;16.50;99.90;;;;;;4983598;28;20208;-78
2021/08/08 02:10:12;;;;;;;2.87;1.40;;;16.50;99.90;;;;;;4979649;28;20224;-78
2021/08/08 02:12:38;;;;;;;2.07;1.47;;;16.50;99.90;;;;;;4977837;28;20304;-78
2021/08/08 02:15:05;;;;;;;2.67;1.50;;;16.40;99.90;;;;;;4975502;28;20188;-79
2021/08/08 02:17:32;;;;;;;3.10;1.40;;;16.50;99.90;;;;;;4975555;28;20181;-79
2021/08/08 02:19:58;;;;;;;3.37;1.97;;;16.40;99.90;;;;;;4974730;28;20177;-79
2021/08/08 02:22:23;;;;;;;3.50;1.70;;;16.40;99.90;;;;;;4976122;28;20191;-79
2021/08/08 02:24:49;;;;;;;4.40;1.80;;;16.30;99.90;;;;;;4975419;28;20204;-79
2021/08/08 02:27:14;;;;;;;2.90;2.03;;;16.30;99.90;;;;;;4975036;28;20177;-79
2021/08/08 02:29:40;;;;;;;4.40;1.97;;;16.30;99.90;;;;;;4974930;28;20177;-79
2021/08/08 02:32:06;;;;;;;2.60;1.53;;;16.30;99.90;;;;;;4974896;28;20203;-79
2021/08/08 02:34:31;;;;;;;5.43;2.17;;;16.30;99.90;;;;;;4974638;28;20196;-80
2021/08/08 02:36:57;;;;;;;4.03;2.07;;;16.30;99.90;;;;;;4974675;28;20181;-79
2021/08/08 02:39:22;;;;;;;4.37;2.00;;;16.30;99.90;;;;;;4974525;28;20189;-79
2021/08/08 02:41:48;;;;;;;3.33;2.20;;;16.30;99.90;;;;;;4974945;28;20204;-79
2021/08/08 02:44:13;;;;;;;4.13;2.20;;;16.30;99.90;;;;;;4974444;28;20205;-79
2021/08/08 02:46:39;;;;;;;3.03;2.00;;;16.30;99.90;;;;;;4974632;28;20555;-79
2021/08/08 02:49:04;;;;;;;3.23;2.63;;;16.30;99.90;;;;;;4974455;28;20173;-79
2021/08/08 02:51:30;;;;;;;4.70;2.60;;;16.30;99.90;;;;;;4974457;28;20630;-79
2021/08/08 02:53:56;;;;;;;6.33;2.93;;;16.20;99.90;;;;;;4974650;28;20191;-80
2021/08/08 02:56:21;;;;;;;5.20;3.17;;;16.10;99.90;;;;;;4974597;28;20649;-78
2021/08/08 02:58:47;;;;;;;5.17;3.20;;;16.00;99.90;;;;;;4973625;28;20191;-79
2021/08/08 03:01:12;;;;;;;5.17;3.27;;;16.00;99.90;;;;;;4973995;28;20209;-79
2021/08/08 03:03:38;;;;;;;7.33;3.47;;;16.00;99.90;;;;;;4973929;28;20244;-79
2021/08/08 03:06:13;;;;;;;5.37;3.30;;;15.90;99.90;;;;;;4974347;28;20212;-79
2021/08/08 03:08:40;;;;;;;5.77;3.70;;;15.90;99.90;;;;;;4974048;28;20545;-79
2021/08/08 03:11:05;;;;;;;6.60;3.33;;;15.90;99.90;;;;;;4973963;28;20212;-79
2021/08/08 03:13:31;;;;;;;7.97;3.40;;;15.80;99.90;;;;;;4973960;28;20179;-79
2021/08/08 03:15:56;;;;;;;7.07;3.60;;;15.90;99.90;;;;;;4974013;28;20177;-79
2021/08/08 03:18:22;;;;;;;5.57;3.53;;;15.90;99.90;;;;;;4973838;28;20191;-79
2021/08/08 03:20:47;;;;;;;6.90;3.80;;;15.90;99.90;;;;;;4973581;28;20621;-79
2021/08/08 03:23:13;;;;;;;6.77;3.70;;;15.90;99.90;;;;;;4974034;28;20575;-79
2021/08/08 03:25:38;;;;;;;6.63;3.57;;;16.00;99.90;;;;;;4973609;28;20192;-79
2021/08/08 03:28:04;;;;;;;9.30;3.73;;;16.00;99.90;;;;;;4973741;28;20234;-79
2021/08/08 03:30:30;;;;;;;8.27;3.90;;;16.00;99.90;;;;;;4973077;28;20247;-79
2021/08/08 03:32:56;;;;;;;9.00;4.10;;;16.00;99.90;;;;;;4973650;28;20703;-79
2021/08/08 03:35:21;;;;;;;8.03;3.90;;;15.90;99.90;;;;;;4989644;28;20180;-79
2021/08/08 03:37:47;;;;;;;9.70;3.80;;;16.00;99.90;;;;;;4973598;28;20241;-79
2021/08/08 03:40:13;;;;;;;6.63;3.47;;;16.00;99.90;;;;;;4973228;28;20239;-79
2021/08/08 03:42:38;;;;;;;6.63;3.90;;;16.00;99.90;;;;;;4973453;28;20191;-79
2021/08/08 03:45:04;;;;;;;6.73;3.83;;;16.00;99.90;;;;;;4973096;28;20181;-79
2021/08/08 03:47:32;;;;;;;11.37;3.83;;;16.00;99.90;;;;;;4973197;28;20181;-79
2021/08/08 03:49:58;;;;;;;5.63;3.53;;;16.00;99.90;;;;;;4973062;28;20177;-79
2021/08/08 03:52:23;;;;;;;8.27;3.40;;;16.00;99.90;;;;;;4973307;28;20619;-79
2021/08/08 03:54:49;;;;;;;6.77;3.43;;;16.10;99.90;;;;;;4973265;28;20611;-79
2021/08/08 03:57:14;;;;;;;7.57;3.40;;;16.10;99.90;;;;;;4973325;28;20255;-79
2021/08/08 03:59:40;;;;;;;8.97;3.40;;;16.20;99.90;;;;;;4973460;28;20188;-79
2021/08/08 04:02:05;;;;;;;10.70;3.50;;;16.20;99.90;;;;;;4974058;28;20211;-79
2021/08/08 04:04:31;;;;;;;10.13;3.13;;;16.20;99.90;;;;;;4973643;28;20201;-79
2021/08/08 04:06:56;;;;;;;8.20;3.20;;;16.20;99.90;;;;;;4972980;28;20207;-79
2021/08/08 04:09:22;;;;;;;4.97;2.90;;;16.30;99.90;;;;;;4972783;28;20664;-79
2021/08/08 04:11:47;;;;;;;6.93;3.07;;;16.30;99.90;;;;;;4972804;28;20213;-79
2021/08/08 04:14:14;;;;;;;9.13;3.07;;;16.30;99.90;;;;;;4973244;28;20279;-79
2021/08/08 04:16:39;;;;;;;5.53;2.90;;;16.20;99.90;;;;;;4984096;28;20199;-79
2021/08/08 04:19:05;;;;;;;5.73;3.00;;;16.30;99.90;;;;;;4991900;28;20184;-79
2021/08/08 04:21:30;;;;;;;8.93;2.70;;;16.30;99.90;;;;;;4992683;28;20211;-78
2021/08/08 04:23:56;;;;;;;5.60;2.80;;;16.40;99.90;;;;;;4992673;28;20212;-79
2021/08/08 04:26:21;;;;;;;8.57;2.57;;;16.40;99.90;;;;;;4992509;28;20185;-79
2021/08/08 04:28:47;;;;;;;5.37;2.50;;;16.40;99.90;;;;;;4992545;28;20238;-79
2021/08/08 04:31:12;;;;;;;7.50;2.77;;;16.40;99.90;;;;;;4991600;28;20204;-79
2021/08/08 04:33:38;;;;;;;6.43;2.60;;;16.40;99.90;;;;;;4992306;28;20188;-79
2021/08/08 04:36:04;;;;;;;8.40;3.03;;;16.40;99.90;;;;;;4992086;28;20196;-79
2021/08/08 04:38:29;;;;;;;8.17;2.63;;;16.40;99.90;;;;;;4991956;28;20667;-79
2021/08/08 04:40:55;;;;;;;6.13;2.40;;;16.40;99.90;;;;;;4991616;28;20235;-79
2021/08/08 04:43:21;;;;;;;5.47;2.60;;;16.50;99.90;;;;;;4977680;28;20268;-79
2021/08/08 04:45:46;;;;;;;8.63;2.40;;;16.50;99.90;;;;;;4996051;28;20176;-79
2021/08/08 04:48:12;;;;;;;7.90;2.60;;;16.50;99.90;;;;;;4996002;28;20195;-79
2021/08/08 04:50:37;;;;;;;7.07;2.80;;;16.50;99.90;;;;;;4995452;28;20283;-79
2021/08/08 04:53:03;;;;;;;8.47;2.50;;;16.50;99.90;;;;;;4980080;28;20640;-79
2021/08/08 04:55:29;;;;;;;8.90;2.67;;;16.50;99.90;;;;;;4995815;28;20180;-79
2021/08/08 04:57:54;;;;;;;7.83;2.50;;;16.50;99.90;;;;;;4997339;28;20183;-78
2021/08/08 05:00:20;;;;;;;6.43;2.40;;;16.60;99.90;;;;;;4996497;28;20196;-79
2021/08/08 05:02:48;;;;;;;6.30;2.43;;;16.50;99.90;;;;;;4996149;28;20168;-79
2021/08/08 05:05:14;;;;;;;8.83;2.70;;;16.50;99.90;;;;;;4996158;28;20180;-79
2021/08/08 05:07:40;;;;;;;8.90;2.50;;;16.60;99.90;;;;;;4995596;28;20183;-79
2021/08/08 05:10:10;;;;;;;6.00;2.30;;;16.60;99.90;;;;;;4995742;28;20188;-79
2021/08/08 05:12:36;;;;;;;6.37;2.17;;;16.60;99.90;;;;;;4995988;28;20554;-79
2021/08/08 05:15:01;;;;;;;8.33;2.33;;;16.50;99.90;;;;;;4995515;28;20176;-79
2021/08/08 05:17:27;;;;;;;5.90;2.17;;;16.50;99.90;;;;;;4995411;28;20665;-79
2021/08/08 05:19:53;;;;;;;10.10;2.63;;;16.50;99.90;;;;;;4995598;28;20235;-78
2021/08/08 05:22:18;;;;;;;10.77;2.77;;;16.60;99.90;;;;;;4996044;28;20187;-78
2021/08/08 05:24:44;;;;;;;7.20;2.30;;;16.60;99.90;;;;;;4995507;28;20238;-79
2021/08/08 05:27:09;;;;;;;7.90;2.57;;;16.50;99.90;;;;;;4995155;28;20678;-79
2021/08/08 05:29:35;;;;;;;7.83;2.43;;;16.60;99.90;;;;;;4995363;28;20235;-79
2021/08/08 05:32:00;;;;;;;7.37;2.40;;;16.50;99.90;;;;;;4995449;28;20192;-79
2021/08/08 05:34:26;;;;;;;5.47;2.43;;;16.50;99.90;;;;;;4995714;28;20644;-79
2021/08/08 05:36:51;;;;;;;8.03;2.37;;;16.60;99.90;;;;;;4995754;28;20191;-79
2021/08/08 05:39:17;;;;;;;8.67;2.70;;;16.60;99.90;;;;;;4994837;28;20180;-79
2021/08/08 05:41:42;;;;;;;7.50;2.30;;;16.60;99.90;;;;;;4979054;28;20211;-79
2021/08/08 05:44:08;;;;;;;6.13;2.47;;;16.60;99.90;;;;;;4994798;28;20208;-79
2021/08/08 05:46:33;;;;;;;8.60;2.67;;;16.60;99.90;;;;;;4995026;28;20177;-80
2021/08/08 05:48:59;;;;;;;10.43;2.23;;;16.60;99.90;;;;;;4995064;28;20176;-78
2021/08/08 05:51:25;;;;;;;9.77;2.50;;;16.60;99.90;;;;;;4994928;28;20292;-78
2021/08/08 05:53:50;;;;;;;7.90;2.53;;;16.70;99.90;;;;;;4994833;28;20648;-79
2021/08/08 05:56:16;;;;;;;9.37;2.53;;;16.90;99.90;;;;;;4995131;28;20188;-79
2021/08/08 05:58:41;;;;;;;9.40;2.60;;;17.10;99.90;;;;;;4995025;28;20226;-78
2021/08/08 06:01:07;;;;;;;7.63;2.23;;;17.20;99.90;;;;;;4995315;28;20206;-79
2021/08/08 06:03:32;;;;;;;7.20;2.30;;;17.20;99.90;;;;;;4994637;28;20298;-79
2021/08/08 06:05:58;;;;;;;9.13;2.70;;;17.10;99.90;;;;;;4994875;28;20555;-79
2021/08/08 06:08:23;;;;;;;7.90;2.90;;;17.00;99.90;;;;;;4994816;28;20552;-79
2021/08/08 06:10:49;;;;;;;10.53;2.63;;;16.90;99.90;;;;;;4994808;28;20212;-79
2021/08/08 06:13:15;;;;;;;7.50;3.00;;;16.90;99.90;;;;;;4994919;28;20180;-79
2021/08/08 06:15:41;;;;;;;6.97;2.73;;;16.80;99.90;;;;;;4994885;28;20307;-79
2021/08/08 06:18:06;;;;;;;11.70;2.73;;;16.80;99.90;;;;;;4994929;28;20234;-80
2021/08/08 06:20:32;;;;;;;7.90;2.70;;;16.80;99.90;;;;;;4994306;28;20204;-79
2021/08/08 06:22:57;;;;;;;9.23;3.10;;;16.90;99.90;;;;;;4994387;28;20188;-79
2021/08/08 06:25:23;;;;;;;8.30;2.80;;;16.90;99.90;;;;;;4978310;28;20187;-79
2021/08/08 06:27:48;;;;;;;8.33;3.03;;;17.00;99.90;;;;;;4994021;28;20195;-79
2021/08/08 06:30:14;;;;;;;6.97;2.67;;;17.00;99.90;;;;;;4993958;28;20216;-79
2021/08/08 06:32:39;;;;;;;10.07;2.83;;;17.00;99.90;;;;;;4994654;28;20180;-78
2021/08/08 06:35:07;;;;;;;8.37;3.10;;;17.00;99.90;;;;;;4994350;28;20186;-80
2021/08/08 06:37:32;;;;;;;8.50;2.80;;;17.00;99.90;;;;;;4994302;28;20192;-80
2021/08/08 06:39:58;;;;;;;7.53;3.30;;;16.90;99.90;;;;;;4994197;28;20180;-79
2021/08/08 06:42:24;;;;;;;8.93;3.27;;;17.00;99.90;;;;;;4994662;28;20180;-79
2021/08/08 06:44:49;;;;;;;8.43;3.43;;;17.10;99.90;;;;;;4994675;28;20211;-78
2021/08/08 06:47:15;;;;;;;13.87;3.70;;;17.20;99.90;;;;;;5002265;28;20176;-79
2021/08/08 06:49:40;;;;;;;9.07;3.47;;;17.20;99.90;;;;;;5003848;28;20176;-79
2021/08/08 06:52:06;;;;;;;7.77;2.63;;;17.10;99.90;;;;;;5001119;28;20293;-79
2021/08/08 06:54:32;;;;;;;9.70;3.00;;;17.10;99.90;;;;;;5004390;28;20235;-79
2021/08/08 06:56:57;;;;;;;11.30;3.50;;;17.00;99.90;;;;;;5002107;28;20180;-80
2021/08/08 06:59:25;;;;;;;6.90;2.67;;;16.90;99.90;;;;;;5000537;28;20732;-80
2021/08/08 07:01:51;;;;;;;9.27;3.17;;;16.90;99.90;;;;;;5000729;28;20191;-80
2021/08/08 07:04:16;;;;;;;10.03;3.27;;;16.80;99.90;;;;;;5001572;28;20212;-79
2021/08/08 07:06:42;;;;;;;10.47;3.30;;;16.80;99.90;;;;;;4996499;28;20184;-75
2021/08/08 07:09:09;;;;;;;6.27;3.27;;;16.90;99.90;;;;;;5009908;28;20559;-76
2021/08/08 07:11:35;;;;;;;8.63;3.47;;;16.80;99.90;;;;;;4995352;28;20623;-76
2021/08/08 07:14:01;;;;;;;8.73;3.03;;;16.80;99.90;;;;;;5009842;28;20188;-75
2021/08/08 07:16:26;;;;;;;13.93;3.17;;;16.90;99.90;;;;;;5010396;28;20663;-76
2021/08/08 07:18:52;;;;;;;9.17;3.27;;;17.00;99.90;;;;;;4990525;28;20347;-76
2021/08/08 07:21:17;;;;;;;10.07;3.10;;;17.10;99.90;;;;;;4983512;28;20246;-76
2021/08/08 07:23:43;;;;;;;11.37;3.13;;;17.20;99.90;;;;;;5025500;28;20204;-76
2021/08/08 07:26:08;;;;;;;6.80;2.80;;;17.30;99.90;;;;;;4999889;28;20182;-76
2021/08/08 07:28:34;;;;;;;8.40;3.07;;;17.30;99.90;;;;;;4986476;28;20175;-75
2021/08/08 07:30:59;;;;;;;9.83;3.57;;;17.40;99.90;;;;;;5012359;28;20222;-76
2021/08/08 07:33:25;;;;;;;10.23;3.20;;;17.50;99.90;;;;;;4999844;28;20202;-78
2021/08/08 07:35:51;;;;;;;10.67;3.27;;;17.50;99.90;;;;;;4981511;28;20183;-78
2021/08/08 07:38:17;;;;;;;11.37;3.30;;;17.60;99.90;;;;;;4981159;28;20184;-79
2021/08/08 07:40:42;;;;;;;7.60;2.90;;;17.50;99.90;;;;;;5000040;28;20200;-77
2021/08/08 07:43:08;;;;;;;7.67;3.20;;;17.40;99.90;;;;;;4997211;28;20233;-78
2021/08/08 07:45:34;;;;;;;10.13;3.10;;;17.40;99.90;;;;;;4995293;28;20175;-79
2021/08/08 07:47:59;;;;;;;11.07;3.20;;;17.30;99.90;;;;;;5013213;28;20176;-77
2021/08/08 07:50:25;;;;;;;9.73;3.20;;;17.30;99.90;;;;;;4995343;28;20279;-78
2021/08/08 07:52:50;;;;;;;7.97;2.73;;;17.40;99.90;;;;;;4996292;28;20190;-78
2021/08/08 07:55:16;;;;;;;11.97;3.03;;;17.40;99.90;;;;;;5029198;28;20579;-77
2021/08/08 07:57:41;;;;;;;10.40;3.17;;;17.50;99.90;;;;;;4996129;28;20651;-78
2021/08/08 08:00:08;;;;;;;8.73;3.10;;;17.60;99.90;;;;;;4995664;28;20547;-78
2021/08/08 08:02:33;;;;;;;9.10;3.10;;;17.60;99.90;;;;;;5012580;28;20210;-77
2021/08/08 08:04:59;;;;;;;10.53;2.93;;;17.50;99.90;;;;;;5013610;28;20211;-78
2021/08/08 08:07:24;;;;;;;10.03;2.90;;;17.50;99.90;;;;;;4981905;28;20641;-79
2021/08/08 08:09:50;;;;;;;9.17;2.90;;;17.50;99.90;;;;;;4992220;28;20632;-78
2021/08/08 08:12:15;;;;;;;12.77;3.40;;;17.50;99.90;;;;;;4984138;28;20210;-77
2021/08/08 08:14:41;;;;;;;12.60;3.23;;;17.50;99.90;;;;;;4986097;28;20180;-77
2021/08/08 08:17:07;;;;;;;10.40;3.57;;;17.60;99.90;;;;;;4993729;28;20188;-77
2021/08/08 08:19:32;;;;;;;9.70;3.00;;;17.70;99.90;;;;;;5010558;28;20191;-76
2021/08/08 08:21:58;;;;;;;9.63;3.30;;;17.80;99.90;;;;;;4996275;28;20679;-77
2021/08/08 08:24:23;;;;;;;10.27;3.47;;;18.00;99.90;;;;;;5013282;28;20207;-82
2021/08/08 08:26:49;;;;;;;8.40;3.37;;;18.00;99.90;;;;;;4988364;28;20240;-78
2021/08/08 08:29:14;;;;;;;11.50;3.37;;;18.20;99.90;;;;;;4994334;28;20180;-78
2021/08/08 08:31:40;;;;;;;7.70;3.07;;;18.30;99.90;;;;;;4992788;28;20205;-77
2021/08/08 08:34:06;;;;;;;9.87;2.90;;;18.30;99.90;;;;;;5012894;28;20175;-79
2021/08/08 08:36:31;;;;;;;10.73;2.93;;;18.50;99.90;;;;;;4998388;28;20643;-79
2021/08/08 08:38:57;;;;;;;8.67;3.00;;;18.60;99.90;;;;;;4997637;28;20210;-78
2021/08/08 08:41:27;;;;;;;8.33;2.67;;;18.70;99.90;;;;;;4995795;28;20210;-79
2021/08/08 08:43:53;;;;;;;10.63;3.23;;;18.80;99.90;;;;;;5002642;28;20211;-78
2021/08/08 08:46:19;;;;;;;6.80;2.77;;;18.80;99.90;;;;;;5006492;28;20172;-80
2021/08/08 08:48:45;;;;;;;8.93;3.20;;;18.70;99.90;;;;;;4999152;28;20184;-77
2021/08/08 08:51:11;;;;;;;11.63;3.50;;;18.60;99.90;;;;;;4994873;28;20557;-79
2021/08/08 08:53:37;;;;;;;8.13;2.53;;;18.50;99.90;;;;;;4996408;28;20191;-78
2021/08/08 08:56:03;;;;;;;11.30;3.33;;;18.60;99.90;;;;;;4997457;28;20585;-80
2021/08/08 08:58:29;;;;;;;8.53;2.67;;;18.60;99.90;;;;;;4996134;28;20181;-77
2021/08/08 09:00:55;;;;;;;9.63;2.77;;;18.70;99.90;;;;;;4995369;28;20196;-76
2021/08/08 09:03:21;;;;;;;8.40;3.03;;;18.60;99.90;;;;;;4994319;28;20200;-77
2021/08/08 09:05:47;;;;;;;8.37;3.07;;;18.50;99.90;;;;;;4997658;28;20180;-78
2021/08/08 09:08:12;;;;;;;10.47;2.93;;;18.50;99.90;;;;;;4992418;28;20226;-79
2021/08/08 09:10:39;;;;;;;12.83;3.27;;;18.60;99.90;;;;;;4992593;28;20291;-78
2021/08/08 09:13:05;;;;;;;9.67;3.20;;;18.60;99.90;;;;;;4991607;28;20196;-78
2021/08/08 09:15:35;;;;;;;9.57;3.00;;;18.60;99.90;;;;;;4991127;28;20615;-77
2021/08/08 09:18:21;;;;;;;6.67;2.83;;;18.80;99.90;;;;;;5007555;28;20176;-76
2021/08/08 09:20:47;;;;;;;9.27;2.83;;;18.90;99.90;;;;;;4991615;28;20306;-77
2021/08/08 09:23:13;;;;;;;9.03;2.90;;;18.80;99.90;;;;;;4991816;28;20715;-77
2021/08/08 09:25:52;;;;;;;10.00;3.03;;;18.80;99.90;;;;;;4991568;28;20176;-75
2021/08/08 09:28:17;;;;;;;8.03;2.83;;;18.90;99.90;;;;;;4992798;28;20169;-77
2021/08/08 09:30:43;;;;;;;6.03;2.10;;;19.10;99.90;;;;;;4995368;28;20211;-76
2021/08/08 09:33:10;;;;;;;7.40;2.90;;;19.20;99.90;;;;;;4995751;28;20193;-77
2021/08/08 09:35:38;;;;;;;9.70;2.90;;;19.30;99.90;;;;;;5000583;28;20243;-78
2021/08/08 09:38:07;;;;;;;9.97;2.80;;;19.50;99.90;;;;;;4999707;28;20210;-80
2021/08/08 09:40:37;;;;;;;9.70;2.47;;;19.60;99.90;;;;;;4998724;28;20216;-80
2021/08/08 09:43:04;;;;;;;20.97;2.93;;;19.80;99.90;;;;;;4997683;28;20644;-78
2021/08/08 09:45:43;;;;;;;8.50;2.40;;;19.70;99.90;;;;;;5011923;28;20182;-77
2021/08/08 09:48:13;;;;;;;6.97;2.70;;;19.70;99.90;;;;;;4995039;28;20186;-77
2021/08/08 09:50:45;;;;;;;6.83;2.30;;;19.60;99.90;;;;;;5010298;28;20663;-76
2021/08/08 09:53:16;;;;;;;7.00;2.27;;;19.60;99.90;;;;;;5010540;28;20184;-76
2021/08/08 09:55:42;;;;;;;5.67;2.27;;;19.70;99.90;;;;;;4994627;28;20190;-75
2021/08/08 09:58:10;;;;;;;6.93;2.20;;;19.80;99.90;;;;;;4994904;28;20180;-84
2021/08/08 10:00:40;;;;;;;8.17;2.37;;;19.90;99.90;;;;;;5011535;28;20290;-78
2021/08/08 10:03:07;;;;;;;6.23;2.73;;;20.10;99.90;;;;;;4994530;28;20877;-77
2021/08/08 10:05:34;;;;;;;9.90;2.90;;;20.10;99.90;;;;;;5000979;28;20241;-75
2021/08/08 10:08:06;;;;;;;6.80;2.73;;;20.00;99.90;;;;;;4979644;28;20208;-76
2021/08/08 10:10:32;;;;;;;8.27;2.67;;;19.90;99.90;;;;;;5007523;28;20261;-75
2021/08/08 10:13:16;;;;;;;7.27;2.60;;;19.80;99.90;;;;;;4989489;28;20595;-77
2021/08/08 10:15:43;;;;;;;7.30;2.33;;;20.00;99.90;;;;;;4984294;28;20191;-75
2021/08/08 10:18:10;;;;;;;8.83;2.33;;;20.20;99.90;;;;;;4992265;28;20191;-77
2021/08/08 10:20:36;;;;;;;7.23;2.23;;;20.40;99.90;;;;;;4991759;28;20574;-77
2021/08/08 10:23:02;;;;;;;8.03;2.40;;;20.50;99.90;;;;;;4992608;28;20255;-76
2021/08/08 10:25:28;;;;;;;9.83;2.73;;;20.50;99.90;;;;;;4994476;28;20180;-77
2021/08/08 10:27:54;;;;;;;6.47;2.17;;;20.50;99.90;;;;;;4994475;28;20562;-76
2021/08/08 10:30:19;;;;;;;9.47;2.30;;;20.40;99.90;;;;;;4993708;28;20292;-76
2021/08/08 10:32:45;;;;;;;6.40;2.20;;;20.30;99.90;;;;;;4993898;28;20184;-76
2021/08/08 10:35:14;;;;;;;9.80;2.57;;;20.20;99.90;;;;;;4993881;28;20184;-76
2021/08/08 10:37:40;;;;;;;11.53;2.40;;;20.10;99.90;;;;;;4993609;28;20184;-76
2021/08/08 10:40:06;;;;;;;7.80;1.90;;;20.20;99.90;;;;;;4992804;28;20181;-75
2021/08/08 10:42:42;;;;;;;8.53;2.50;;;20.40;99.90;;;;;;4993608;28;20184;-76
2021/08/08 10:45:09;;;;;;;8.03;2.13;;;20.60;99.90;;;;;;4993504;28;20195;-76
2021/08/08 10:47:34;;;;;;;6.10;2.00;;;20.40;99.90;;;;;;4993632;28;20222;-74
2021/08/08 10:50:11;;;;;;;8.10;2.00;;;20.20;99.90;;;;;;4993232;28;20176;-76
2021/08/08 10:52:40;;;;;;;7.53;2.30;;;20.00;99.90;;;;;;4993330;28;20192;-76
2021/08/08 10:55:06;;;;;;;8.40;2.77;;;19.90;99.90;;;;;;4994568;28;20659;-76
2021/08/08 10:57:40;;;;;;;8.53;2.50;;;19.90;99.90;;;;;;4993575;28;20549;-76
2021/08/08 11:00:14;;;;;;;8.17;2.40;;;20.00;99.90;;;;;;4993002;28;20259;-77
2021/08/08 11:02:39;;;;;;;7.93;2.10;;;20.00;99.90;;;;;;4994543;28;20724;-78
2021/08/08 11:05:16;;;;;;;9.53;2.40;;;20.00;99.90;;;;;;4992978;28;20203;-76
2021/08/08 11:07:42;;;;;;;8.73;2.50;;;20.00;99.90;;;;;;4993020;28;20222;-76
2021/08/08 11:10:09;;;;;;;6.27;2.00;;;20.10;99.90;;;;;;4992627;28;20196;-76
2021/08/08 11:12:36;;;;;;;8.10;2.23;;;20.10;99.90;;;;;;4993135;28;20675;-76
2021/08/08 11:15:03;;;;;;;4.57;1.73;;;20.10;99.90;;;;;;4992960;28;20559;-76
2021/08/08 11:17:28;;;;;;;7.93;2.17;;;20.10;99.90;;;;;;4994496;28;20192;-76
2021/08/08 11:19:57;;;;;;;6.43;2.00;;;20.00;99.90;;;;;;4993490;28;20244;-76
2021/08/08 11:22:23;;;;;;;7.63;2.20;;;20.00;99.90;;;;;;4992784;28;20243;-76
2021/08/08 11:25:02;;;;;;;5.27;2.20;;;20.00;99.90;;;;;;4992783;28;20621;-77
2021/08/08 11:27:33;;;;;;;6.87;2.30;;;20.20;99.90;;;;;;4992349;28;20647;-76
2021/08/08 11:29:59;;;;;;;6.30;1.97;;;20.30;99.90;;;;;;5003822;28;20168;-76
2021/08/08 11:32:28;;;;;;;9.20;2.20;;;20.60;99.90;;;;;;4996475;28;20262;-76
2021/08/08 11:35:09;;;;;;;7.17;2.10;;;20.60;99.90;;;;;;5013373;28;20403;-76
2021/08/08 11:37:44;;;;;;;6.97;2.67;;;20.60;99.90;;;;;;5011969;28;20922;-76
2021/08/08 11:40:23;;;;;;;8.10;2.10;;;20.30;99.90;;;;;;4996605;28;20190;-76
2021/08/08 11:42:57;;;;;;;7.17;1.90;;;20.00;99.90;;;;;;5012333;28;20167;-75
2021/08/08 11:45:32;;;;;;;5.73;2.23;;;19.80;99.90;;;;;;5007956;28;20179;-77
2021/08/08 11:47:57;;;;;;;7.97;2.20;;;19.80;99.90;;;;;;5027826;28;20183;-77
2021/08/08 11:50:28;;;;;;;8.93;2.90;;;19.80;99.90;;;;;;5006691;28;20218;-77
2021/08/08 11:52:58;;;;;;;8.80;2.40;;;19.90;99.90;;;;;;5006375;28;20187;-77
2021/08/08 11:55:24;;;;;;;6.53;1.80;;;20.00;99.90;;;;;;4992721;28;20180;-76
2021/08/08 11:57:49;;;;;;;7.53;2.07;;;20.10;99.90;;;;;;4992605;28;20180;-77
2021/08/08 12:00:15;;;;;;;8.97;2.23;;;20.20;99.90;;;;;;5004888;28;20204;-76
2021/08/08 12:02:41;;;;;;;7.20;1.87;;;20.20;99.90;;;;;;4995474;28;20176;-76
2021/08/08 12:05:07;;;;;;;6.07;1.90;;;20.10;99.90;;;;;;4980027;28;20674;-77
2021/08/08 12:07:32;;;;;;;7.93;1.97;;;20.30;99.90;;;;;;4995251;28;20180;-76
2021/08/08 12:09:59;;;;;;;6.53;1.93;;;20.60;99.90;;;;;;5000811;28;20617;-76
2021/08/08 12:12:37;;;;;;;4.33;1.97;;;20.70;99.90;;;;;;4976474;28;20179;-77
2021/08/08 12:15:04;;;;;;;4.70;1.80;;;20.70;99.90;;;;;;4976388;28;20172;-77
2021/08/08 12:17:30;;;;;;;8.37;2.00;;;20.60;99.90;;;;;;4982825;28;20180;-77
2021/08/08 12:19:57;;;;;;;5.47;2.10;;;20.60;99.90;;;;;;4980201;28;20188;-77
2021/08/08 12:22:29;;;;;;;8.67;1.97;;;20.50;99.90;;;;;;4998506;28;20180;-77
2021/08/08 12:25:07;;;;;;;6.50;1.80;;;20.40;99.90;;;;;;4995822;28;20202;-77
2021/08/08 12:27:35;;;;;;;5.33;1.90;;;20.40;99.90;;;;;;5010819;28;20182;-76
2021/08/08 12:30:01;;;;;;;8.50;2.00;;;20.40;99.90;;;;;;4992259;28;20265;-77
2021/08/08 12:32:34;;;;;;;4.57;2.00;;;20.40;99.90;;;;;;5004034;28;20172;-78
2021/08/08 12:35:11;;;;;;;4.60;1.93;;;20.10;99.90;;;;;;4977978;28;20173;-78
2021/08/08 12:37:37;;;;;;;7.93;2.17;;;20.00;99.90;;;;;;4992984;28;20628;-78
2021/08/08 12:40:12;;;;;;;8.63;2.00;;;20.10;99.90;;;;;;4976275;28;20184;-79
2021/08/08 12:42:38;;;;;;;5.53;1.67;;;20.20;99.90;;;;;;4976864;28;20180;-78